Time;durP1;ratioP1;P1;durP2;ratioP2;P2;SDS_P1;SDS_P2;PMS_P1;PMS_P2;Temp;Humidity;BMP_temperature;BMP_pressure;BME280_temperature;BME280_humidity;BME280_pressure;Samples;Min_cycle;Max_cycle;Signal;HPM_P1;HPM_P2
2022/05/29 10:55:56;;;;;;;3.50;1.67;;;;;;;8.06;72.43;96227.44;2081992;27;20893;-64
2022/05/29 10:57:15;;;;;;;2.90;2.45;;;;;;;8.82;74.89;96215.53;2068920;28;20225;-66
2022/05/29 10:58:19;;;;;;;4.45;1.80;;;;;;;9.57;71.89;96223.44;2082597;28;20197;-66
2022/05/29 10:59:35;;;;;;;3.17;1.45;;;;;;;9.52;71.62;96216.72;2073010;28;20546;-66
2022/05/29 11:00:58;;;;;;;4.10;0.93;;;;;;;9.38;69.46;96218.19;2072948;28;20203;-66
2022/05/29 11:03:56;;;;;;;1.67;0.80;;;;;;;9.38;71.68;96210.38;2072242;28;20206;-66
2022/05/29 11:05:16;;;;;;;2.00;0.80;;;;;;;9.53;66.28;96210.59;2073526;28;20666;-66
2022/05/29 11:06:30;;;;;;;1.30;0.80;;;;;;;9.67;71.54;96209.94;2063258;28;20233;-66
2022/05/29 11:07:49;;;;;;;4.00;1.17;;;;;;;10.06;69.84;96206.31;2061656;28;20240;-66
2022/05/29 11:09:28;;;;;;;3.60;1.20;;;;;;;10.15;67.17;96202.41;2055918;28;20211;-66
2022/05/29 11:10:53;;;;;;;1.75;0.70;;;;;;;10.34;64.81;96207.53;2058102;28;20229;-66
2022/05/29 11:12:18;;;;;;;1.30;0.88;;;;;;;10.90;63.82;96209.00;2061111;28;20228;-66
2022/05/29 11:13:46;;;;;;;1.70;1.20;;;;;;;11.37;63.23;96209.97;2064791;28;20205;-66
2022/05/29 11:14:48;;;;;;;2.85;1.00;;;;;;;11.48;63.88;96206.78;2058442;28;20194;-67
2022/05/29 11:16:27;;;;;;;7.05;1.17;;;;;;;11.32;63.19;96205.94;2058736;28;20236;-67
2022/05/29 11:17:42;;;;;;;1.65;1.00;;;;;;;12.06;61.93;96199.22;2061023;28;20226;-66
2022/05/29 11:19:07;;;;;;;5.78;1.33;;;;;;;12.03;60.82;96205.47;2063711;28;20194;-66
2022/05/29 11:20:20;;;;;;;4.28;1.02;;;;;;;12.54;57.80;96201.66;2057855;28;20198;-66
2022/05/29 11:21:47;;;;;;;2.80;1.23;;;;;;;12.37;59.58;96197.44;2058845;28;20198;-66
2022/05/29 11:23:16;;;;;;;6.95;1.60;;;;;;;12.34;59.94;96197.59;2072838;28;20193;-66
2022/05/29 11:24:27;;;;;;;5.90;1.10;;;;;;;12.95;58.82;96193.09;2069340;28;20198;-66
2022/05/29 11:25:31;;;;;;;3.58;1.30;;;;;;;13.15;60.65;96196.25;2068736;28;20194;-66
2022/05/29 11:26:44;;;;;;;4.40;1.10;;;;;;;13.26;62.97;96192.97;2067499;28;20208;-66
2022/05/29 11:27:59;;;;;;;4.20;1.40;;;;;;;13.22;61.86;96192.31;2091130;28;20607;-66
2022/05/29 11:29:04;;;;;;;11.07;2.38;;;;;;;13.31;62.62;96198.78;2079244;28;20201;-67
2022/05/29 11:30:49;;;;;;;6.28;1.65;;;;;;;13.76;56.81;96185.47;2069253;28;20209;-67
2022/05/29 11:32:17;;;;;;;13.82;2.17;;;;;;;13.01;59.79;96194.47;2070447;28;20220;-67
2022/05/29 11:33:22;;;;;;;9.63;3.97;;;;;;;12.73;62.40;96186.53;2089057;28;20197;-66
2022/05/29 11:34:49;;;;;;;8.55;2.50;;;;;;;14.02;62.42;96181.16;2073017;28;20205;-67
2022/05/29 11:35:53;;;;;;;4.80;1.70;;;;;;;14.00;59.36;96185.66;2073583;28;20211;-67
2022/05/29 11:37:04;;;;;;;5.50;1.77;;;;;;;13.77;58.60;96180.13;2072463;28;20219;-66
2022/05/29 11:38:32;;;;;;;7.80;1.77;;;;;;;14.08;63.08;96174.63;2085266;28;20219;-67
2022/05/29 11:39:40;;;;;;;4.18;1.88;;;;;;;14.40;62.01;96172.50;2074273;28;20206;-67
2022/05/29 11:40:48;;;;;;;3.28;1.20;;;;;;;14.61;57.49;96178.06;2070566;28;20204;-67
2022/05/29 11:41:52;;;;;;;2.97;1.30;;;;;;;14.99;55.73;96171.13;2074113;28;20734;-67
2022/05/29 11:43:04;;;;;;;8.55;1.98;;;;;;;15.32;55.73;96181.06;2076269;28;20198;-67
2022/05/29 11:44:20;;;;;;;4.18;1.42;;;;;;;15.45;56.87;96173.16;2069640;28;20687;-67
2022/05/29 11:51:36;;;;;;;8.07;1.40;;;;;;;15.78;52.91;96173.44;2045244;28;20221;-65
2022/05/29 11:52:43;;;;;;;4.10;1.45;;;;;;;15.44;55.38;96167.97;2079110;28;20193;-64
2022/05/29 11:54:03;;;;;;;5.10;1.30;;;;;;;15.66;55.84;96168.09;2072013;28;20661;-64
2022/05/29 11:55:30;;;;;;;3.00;1.67;;;;;;;16.10;54.87;96162.34;2080199;28;20220;-64
2022/05/29 11:56:53;;;;;;;7.47;1.40;;;;;;;16.44;52.56;96150.13;2066961;28;20199;-64
2022/05/29 11:58:03;;;;;;;2.75;1.42;;;;;;;15.28;55.24;96155.09;2080326;28;20203;-64
2022/05/29 11:59:20;;;;;;;4.35;1.50;;;;;;;14.56;52.80;96156.50;2063120;28;20203;-64
2022/05/29 12:00:49;;;;;;;6.60;1.30;;;;;;;15.61;55.92;96156.25;2058311;28;20197;-64
2022/05/29 12:01:59;;;;;;;5.97;1.88;;;;;;;16.07;53.98;96150.25;2058820;28;20223;-64
2022/05/29 12:03:22;;;;;;;2.65;1.30;;;;;;;16.49;58.02;96160.28;2066298;28;20716;-64
2022/05/29 12:04:37;;;;;;;4.82;1.33;;;;;;;15.98;51.10;96149.13;2068084;28;20210;-64
2022/05/29 12:05:47;;;;;;;5.93;1.60;;;;;;;15.98;52.46;96114.91;2060793;28;20198;-64
2022/05/29 12:07:14;;;;;;;7.20;1.83;;;;;;;17.01;51.30;96150.19;2063265;28;20223;-65
2022/05/29 12:08:27;;;;;;;5.88;1.45;;;;;;;17.32;50.02;96146.91;2081416;28;20206;-64
2022/05/29 12:09:37;;;;;;;4.10;1.42;;;;;;;17.50;51.56;96145.44;2067872;28;20202;-64
2022/05/29 12:11:04;;;;;;;2.83;1.00;;;;;;;16.74;48.40;96146.06;2066821;28;20203;-64
2022/05/29 12:12:15;;;;;;;6.60;1.40;;;;;;;15.96;52.72;96115.97;2061057;28;20589;-64
2022/05/29 12:13:19;;;;;;;4.32;1.10;;;;;;;16.14;51.49;96143.56;2080695;28;20201;-64
2022/05/29 12:14:46;;;;;;;6.88;1.30;;;;;;;15.18;50.66;96147.00;2068550;28;20230;-64
2022/05/29 12:15:55;;;;;;;3.90;1.50;;;;;;;15.68;53.77;96137.25;2066637;28;20727;-64
2022/05/29 12:17:10;;;;;;;4.53;1.20;;;;;;;16.53;53.14;96145.09;2068851;28;20293;-64
2022/05/29 12:18:16;;;;;;;3.55;1.00;;;;;;;16.85;49.55;96137.34;2082236;28;20211;-64
2022/05/29 12:19:24;;;;;;;7.65;1.63;;;;;;;17.07;48.05;96141.78;2056480;28;20206;-64
2022/05/29 12:20:42;;;;;;;5.28;1.33;;;;;;;16.41;51.90;96147.69;2056072;28;20566;-64
2022/05/29 12:21:52;;;;;;;4.30;1.40;;;;;;;16.36;50.87;96141.94;2058068;28;20226;-64
2022/05/29 12:23:02;;;;;;;5.35;1.40;;;;;;;16.41;50.68;96136.34;2058298;28;20651;-65
2022/05/29 12:24:10;;;;;;;8.10;1.92;;;;;;;16.32;47.12;96143.16;2051720;28;20203;-64
2022/05/29 12:25:28;;;;;;;2.85;1.10;;;;;;;16.54;48.53;96142.31;2052421;28;20199;-64
2022/05/29 12:26:50;;;;;;;2.58;1.05;;;;;;;16.74;46.19;96146.06;2046737;28;20518;-64
2022/05/29 12:27:54;;;;;;;3.08;1.17;;;;;;;17.23;42.94;96138.78;2073021;28;20198;-64
2022/05/29 12:29:02;;;;;;;2.55;0.90;;;;;;;17.57;45.16;96141.34;2064239;28;20206;-65
2022/05/29 12:30:10;;;;;;;62.80;36.72;;;;;;;17.27;46.34;96129.66;2056383;28;20210;-64
2022/05/29 12:31:19;;;;;;;33.05;18.17;;;;;;;16.91;49.12;96134.25;2056668;28;20205;-64
2022/05/29 12:32:27;;;;;;;33.83;17.92;;;;;;;17.25;47.43;96139.47;2041680;28;20228;-64
2022/05/29 12:33:35;;;;;;;7.72;3.08;;;;;;;17.87;46.00;96133.69;2059993;28;20198;-64
2022/05/29 12:34:46;;;;;;;4.13;1.52;;;;;;;18.44;46.47;96137.75;2060826;28;20202;-64
2022/05/29 12:36:06;;;;;;;5.40;1.55;;;;;;;17.71;42.53;96137.59;2060888;28;20198;-65
2022/05/29 12:37:48;;;;;;;2.85;1.00;;;;;;;17.70;44.81;96132.41;2069824;28;20229;-64
2022/05/29 12:39:23;;;;;;;8.18;1.15;;;;;;;18.31;46.93;96142.41;2074313;28;20202;-65
2022/05/29 12:40:34;;;;;;;4.47;1.10;;;;;;;18.82;43.82;96131.97;2067213;28;20197;-64
2022/05/29 12:41:41;;;;;;;2.58;1.10;;;;;;;18.82;43.76;96129.34;2065532;28;20194;-64
2022/05/29 12:42:45;;;;;;;6.82;1.30;;;;;;;18.49;43.89;96131.25;2065437;28;20224;-64
2022/05/29 12:43:50;;;;;;;2.35;0.90;;;;;;;18.82;42.91;96130.16;2067400;28;20205;-64
2022/05/29 12:45:10;;;;;;;2.40;1.08;;;;;;;19.04;42.99;96129.16;2069480;28;20203;-64
2022/05/29 12:47:01;;;;;;;1.63;0.90;;;;;;;19.34;41.68;96132.75;2060262;28;20190;-64
2022/05/29 12:48:21;;;;;;;8.52;1.40;;;;;;;18.87;40.34;96127.94;2048701;28;20281;-69
2022/05/29 12:49:37;;;;;;;5.57;0.93;;;;;;;18.72;42.15;96127.47;2048003;28;20204;-69
2022/05/29 12:51:08;;;;;;;1.83;0.95;;;;;;;17.76;40.28;96114.28;2047985;28;20202;-66
2022/05/29 12:52:48;;;;;;;3.95;1.55;;;;;;;18.55;41.92;96125.41;2026790;29;20796;-67
2022/05/29 12:54:30;;;;;;;5.18;1.10;;;;;;;18.70;42.58;96121.47;2063394;28;20684;-66
2022/05/29 12:55:57;;;;;;;4.10;1.35;;;;;;;18.79;42.89;96105.78;2069463;28;20348;-66
2022/05/29 12:57:25;;;;;;;1.65;0.98;;;;;;;18.71;42.23;96117.84;2063858;28;20228;-66
2022/05/29 12:58:45;;;;;;;2.75;1.42;;;;;;;19.19;43.06;96118.22;2079875;28;20196;-66
2022/05/29 13:00:17;;;;;;;5.32;1.20;;;;;;;19.17;41.16;96117.50;2067160;28;20425;-66
2022/05/29 13:01:28;;;;;;;3.75;1.10;;;;;;;19.25;40.17;96107.09;2065280;28;20552;-66
2022/05/29 13:02:45;;;;;;;5.47;1.40;;;;;;;18.93;40.19;96111.59;2065394;28;20581;-66
2022/05/29 13:03:53;;;;;;;3.40;1.00;;;;;;;18.69;39.95;96106.59;2065755;28;20221;-66
2022/05/29 13:05:32;;;;;;;4.55;1.30;;;;;;;19.16;41.52;96105.25;2065559;28;20224;-66
2022/05/29 13:07:05;;;;;;;6.97;1.40;;;;;;;19.27;40.33;96117.53;2060101;28;20886;-66
2022/05/29 13:08:07;;;;;;;11.05;1.55;;;;;;;18.48;39.39;96113.72;2081379;28;20200;-65
2022/05/29 13:09:34;;;;;;;7.10;1.40;;;;;;;18.69;39.78;96108.38;2073671;28;20202;-66
2022/05/29 13:10:39;;;;;;;11.38;1.60;;;;;;;19.20;38.66;96107.50;2068805;28;20707;-66
2022/05/29 13:11:50;;;;;;;4.50;0.93;;;;;;;18.83;39.14;96107.19;2062044;28;20221;-66
2022/05/29 13:13:01;;;;;;;3.15;0.88;;;;;;;18.28;42.54;96108.28;2084959;28;20196;-66
2022/05/29 13:14:07;;;;;;;4.60;1.55;;;;;;;18.09;43.17;96115.13;2074152;28;20206;-66
2022/05/29 13:15:12;;;;;;;4.35;1.20;;;;;;;18.14;44.64;96109.44;2066501;28;20206;-66
2022/05/29 13:16:35;;;;;;;4.75;1.33;;;;;;;17.86;44.05;96109.06;2083039;28;20219;-66
2022/05/29 13:17:38;;;;;;;4.22;1.50;;;;;;;17.59;44.46;96099.00;2066111;28;20226;-66
2022/05/29 13:20:18;;;;;;;5.45;1.13;;;;;;;16.56;46.75;96103.53;2068080;28;20211;-66
2022/05/29 13:21:20;;;;;;;6.05;1.10;;;;;;;15.72;47.49;96116.81;2067215;28;20205;-66
2022/05/29 13:22:55;;;;;;;6.28;1.30;;;;;;;15.88;47.63;96123.63;2066697;28;20201;-66
2022/05/29 13:23:58;;;;;;;9.13;1.45;;;;;;;14.72;47.65;96123.97;2067189;28;20199;-66
2022/05/29 13:25:03;;;;;;;8.35;1.40;;;;;;;14.11;49.46;96116.69;2068146;28;20209;-66
2022/05/29 13:26:04;;;;;;;4.50;1.50;;;;;;;13.75;49.74;96124.28;2068202;28;20189;-66
2022/05/29 13:27:08;;;;;;;8.35;1.30;;;;;;;13.38;51.10;96119.66;2071103;28;20232;-66
2022/05/29 13:28:31;;;;;;;3.08;1.45;;;;;;;13.02;53.24;96136.72;2086027;28;20200;-66
2022/05/29 13:30:01;;;;;;;5.68;1.25;;;;;;;13.44;52.37;96136.75;2069418;28;20203;-66
2022/05/29 13:31:14;;;;;;;6.13;1.23;;;;;;;13.45;52.64;96142.84;2069272;28;20202;-66
2022/05/29 14:04:32;;;;;;;3.03;1.20;;;;;;;14.73;48.49;96121.25;2084066;28;20243;-68
2022/05/29 14:05:40;;;;;;;2.00;1.15;;;;;;;15.12;48.25;96110.63;2085606;28;20253;-68
2022/05/29 14:06:45;;;;;;;3.60;1.20;;;;;;;15.87;46.08;96124.56;2073808;28;20303;-67
2022/05/29 14:08:18;;;;;;;3.22;1.40;;;;;;;16.22;46.09;96121.09;2081017;28;20205;-67
2022/05/29 14:09:23;;;;;;;5.57;1.08;;;;;;;15.57;45.73;96118.78;2075096;28;20811;-68
2022/05/29 14:10:29;;;;;;;4.22;1.27;;;;;;;15.53;46.93;96119.97;2075127;28;20288;-68
2022/05/29 14:11:46;;;;;;;2.53;1.20;;;;;;;15.61;46.65;96109.72;2062440;28;20208;-67
2022/05/29 14:13:06;;;;;;;2.60;1.40;;;;;;;16.62;44.53;96124.16;2080575;28;20200;-67
2022/05/29 14:14:29;;;;;;;3.67;1.15;;;;;;;17.78;41.80;96114.16;2074997;28;20216;-68
2022/05/29 14:15:37;;;;;;;3.75;1.20;;;;;;;17.90;41.57;96114.94;2075692;28;20667;-68
2022/05/29 14:16:43;;;;;;;5.82;1.00;;;;;;;18.55;41.78;96106.91;2065379;28;21070;-67
2022/05/29 14:17:45;;;;;;;5.75;1.40;;;;;;;19.01;40.60;96108.28;2082360;28;20329;-67
2022/05/29 14:19:02;;;;;;;3.80;1.25;;;;;;;18.90;40.53;96103.91;2080252;28;20194;-68
2022/05/29 14:20:18;;;;;;;3.08;1.48;;;;;;;19.06;39.28;96108.69;2077246;28;20962;-68
2022/05/29 14:21:41;;;;;;;4.22;1.20;;;;;;;19.04;38.61;96109.81;2070503;28;20197;-68
2022/05/29 14:23:21;;;;;;;4.60;1.35;;;;;;;18.90;38.55;96109.19;2071948;28;20309;-63
2022/05/29 14:24:31;;;;;;;3.40;1.23;;;;;;;18.39;38.50;96112.69;2071945;28;20282;-63
2022/05/29 14:26:02;;;;;;;6.10;1.55;;;;;;;18.13;39.29;96110.41;2072122;28;20216;-63
2022/05/29 14:27:35;;;;;;;3.20;1.30;;;;;;;18.86;37.84;96106.94;2070184;28;20236;-63
2022/05/29 14:29:09;;;;;;;3.65;1.25;;;;;;;17.95;37.63;96104.88;2080217;28;20196;-63
2022/05/29 14:30:34;;;;;;;9.15;1.10;;;;;;;18.81;37.10;96102.03;2073995;28;20550;-63
2022/05/29 14:32:13;;;;;;;2.83;1.23;;;;;;;19.32;36.85;96110.03;2062685;28;20204;-63
2022/05/29 14:33:29;;;;;;;4.57;1.25;;;;;;;19.13;36.42;96110.81;2081457;28;20632;-63
2022/05/29 14:34:36;;;;;;;4.45;1.10;;;;;;;19.00;36.55;96109.22;2074423;28;20200;-63
2022/05/29 14:36:02;;;;;;;5.57;1.13;;;;;;;18.43;36.26;96104.34;2071731;28;20336;-63
2022/05/29 14:37:25;;;;;;;4.75;1.38;;;;;;;18.48;35.86;96111.06;2066925;28;20220;-63
2022/05/29 14:38:45;;;;;;;3.10;1.00;;;;;;;19.01;34.79;96073.06;2080108;28;20197;-62
2022/05/29 14:40:04;;;;;;;7.53;1.65;;;;;;;18.83;35.77;96099.25;2074995;28;20559;-63
2022/05/29 14:41:21;;;;;;;6.60;1.42;;;;;;;18.18;36.61;96099.47;2073981;28;20197;-63
2022/05/29 14:42:35;;;;;;;4.38;1.17;;;;;;;17.77;38.32;96092.19;2074711;28;20212;-63
2022/05/29 14:43:40;;;;;;;4.43;1.10;;;;;;;17.67;37.77;96090.44;2074113;28;20193;-63
2022/05/29 14:45:12;;;;;;;8.68;1.33;;;;;;;17.88;37.43;96088.66;2074013;28;20197;-63
2022/05/29 14:46:38;;;;;;;5.57;1.40;;;;;;;17.95;37.69;96095.16;2078390;28;20197;-63
2022/05/29 14:47:54;;;;;;;4.80;1.27;;;;;;;17.58;38.14;96092.84;2068853;28;20213;-63
2022/05/29 14:49:09;;;;;;;6.53;1.30;;;;;;;17.31;39.65;96090.69;2073454;28;20570;-63
2022/05/29 14:50:21;;;;;;;2.90;1.00;;;;;;;17.49;39.28;96092.78;2072073;28;20209;-63
2022/05/29 14:51:40;;;;;;;8.65;1.60;;;;;;;17.65;38.43;96095.84;2064624;28;20244;-63
2022/05/29 14:52:52;;;;;;;4.25;1.35;;;;;;;17.46;36.08;96097.34;2072798;28;20204;-63
2022/05/29 14:53:59;;;;;;;9.43;1.50;;;;;;;17.94;37.52;96089.97;2074020;28;20889;-63
2022/05/29 14:55:10;;;;;;;2.38;0.90;;;;;;;18.68;36.72;96088.22;2076124;28;20206;-62
2022/05/29 14:56:12;;;;;;;4.82;1.20;;;;;;;18.88;34.04;96083.81;2070494;28;20713;-63
2022/05/29 14:57:16;;;;;;;7.10;1.30;;;;;;;18.91;34.85;96092.34;2067408;28;20319;-63
2022/05/29 14:58:38;;;;;;;8.80;1.45;;;;;;;18.58;35.99;96086.34;2073777;28;20193;-63
2022/05/29 14:59:39;;;;;;;5.57;1.90;;;;;;;18.57;36.87;96068.78;2073732;28;20197;-62
2022/05/29 15:00:41;;;;;;;9.35;1.38;;;;;;;18.97;35.68;96084.84;2080328;28;20201;-63
2022/05/29 15:01:43;;;;;;;3.88;1.30;;;;;;;18.85;35.06;96071.69;2078023;28;20239;-63
2022/05/29 15:02:45;;;;;;;4.68;1.23;;;;;;;19.02;34.63;96087.94;2074968;28;20233;-63
2022/05/29 15:03:48;;;;;;;6.25;1.45;;;;;;;19.07;34.50;96078.63;2074631;28;20285;-63
2022/05/29 15:04:50;;;;;;;2.88;1.10;;;;;;;18.82;34.25;96074.63;2071470;28;20204;-63
2022/05/29 15:05:55;;;;;;;5.68;1.50;;;;;;;18.66;35.17;96079.56;2071324;28;20202;-62
2022/05/29 15:11:15;;;;;;;40.22;17.30;;;;;;;19.30;33.79;96059.03;2072989;28;20202;-62
2022/05/29 15:12:23;;;;;;;28.80;14.15;;;;;;;19.33;33.45;96067.53;2067846;28;20233;-62
2022/05/29 15:14:01;;;;;;;87.53;44.80;;;;;;;18.84;34.01;96063.91;2072768;28;20194;-62
2022/05/29 15:15:27;;;;;;;51.63;21.58;;;;;;;19.13;34.55;96064.00;2064717;28;20205;-62
2022/05/29 15:16:44;;;;;;;376.65;158.50;;;;;;;18.75;34.05;96063.75;2058369;28;20241;-63
2022/05/29 15:17:48;;;;;;;638.17;322.80;;;;;;;18.82;32.51;96034.94;2075775;28;20275;-63
2022/05/29 15:18:49;;;;;;;348.33;135.82;;;;;;;19.15;34.12;96058.59;2073641;28;20194;-63
2022/05/29 15:24:12;;;;;;;11.38;2.92;;;;;;;19.46;32.95;96053.22;2061256;28;20198;-67
2022/05/29 15:25:18;;;;;;;6.40;1.60;;;;;;;19.61;33.03;96054.47;2067953;28;20202;-67
2022/05/29 15:26:23;;;;;;;7.10;1.85;;;;;;;19.74;32.26;96057.69;2067686;28;20205;-67
2022/05/29 15:27:25;;;;;;;3.58;1.00;;;;;;;19.08;32.01;96053.84;2069236;28;20674;-68
2022/05/29 15:28:30;;;;;;;7.53;1.15;;;;;;;18.17;32.76;96064.28;2063125;28;20570;-67
2022/05/29 15:29:59;;;;;;;3.90;1.10;;;;;;;18.76;33.53;96057.47;2063102;28;20203;-68
2022/05/29 15:31:02;;;;;;;5.45;2.17;;;;;;;18.66;33.94;96024.88;2067134;28;20348;-68
2022/05/29 15:32:15;;;;;;;4.00;1.17;;;;;;;18.96;33.50;96059.38;2064804;28;20221;-67
2022/05/29 15:33:20;;;;;;;6.30;1.20;;;;;;;18.91;34.81;96047.38;2072606;28;20736;-68
2022/05/29 15:34:47;;;;;;;4.78;1.50;;;;;;;18.89;34.55;96059.91;2067073;28;20202;-68
2022/05/29 15:35:54;;;;;;;7.07;1.50;;;;;;;18.99;33.45;96064.41;2061161;28;20194;-67
2022/05/29 15:37:01;;;;;;;10.70;1.52;;;;;;;19.07;33.75;96056.63;2063648;28;20225;-67
2022/05/29 15:38:18;;;;;;;6.45;1.20;;;;;;;19.18;33.18;96063.63;2077857;28;20560;-68
2022/05/29 15:39:39;;;;;;;4.45;1.20;;;;;;;19.07;34.28;96057.47;2063385;28;20214;-68
2022/05/29 15:41:20;;;;;;;2.38;1.10;;;;;;;17.29;33.51;96050.38;2064201;28;20690;-68
2022/05/29 15:42:26;;;;;;;2.95;1.10;;;;;;;18.03;32.53;96057.53;2067098;28;20210;-67
2022/05/29 15:43:37;;;;;;;4.00;1.23;;;;;;;17.83;33.84;96051.25;2059430;28;20208;-67
2022/05/29 15:44:58;;;;;;;5.85;1.70;;;;;;;17.99;35.35;96055.28;2060050;28;20297;-68
2022/05/29 15:46:02;;;;;;;5.15;1.40;;;;;;;18.05;35.16;96055.56;2065196;28;20203;-68
2022/05/29 15:47:31;;;;;;;5.05;1.25;;;;;;;18.47;32.51;96053.88;2062056;28;20224;-68
2022/05/29 15:49:02;;;;;;;6.15;1.88;;;;;;;18.89;34.26;96053.75;2073291;28;20664;-67
2022/05/29 15:50:16;;;;;;;6.00;1.48;;;;;;;18.73;33.48;96049.81;2057132;28;20207;-68
2022/05/29 15:51:35;;;;;;;4.50;1.30;;;;;;;18.56;32.86;96048.63;2064944;28;20697;-68
2022/05/29 15:53:06;;;;;;;12.00;1.60;;;;;;;18.76;34.10;96048.72;2071368;28;20216;-68
2022/05/29 15:54:25;;;;;;;4.15;1.20;;;;;;;18.88;34.45;96054.72;2070574;28;20647;-67
2022/05/29 15:55:44;;;;;;;5.82;1.45;;;;;;;18.61;34.38;96056.16;2069310;28;20612;-68
2022/05/29 15:56:57;;;;;;;2.90;1.08;;;;;;;18.79;34.14;96047.59;2059638;28;20655;-68
2022/05/29 15:58:29;;;;;;;5.60;1.30;;;;;;;18.52;33.68;96049.03;2076690;28;20895;-67
2022/05/29 15:59:46;;;;;;;4.50;1.20;;;;;;;18.52;35.13;96049.03;2067944;28;20194;-67
2022/05/29 16:01:08;;;;;;;3.28;0.80;;;;;;;18.56;34.71;96047.78;2066772;28;20201;-67
2022/05/29 16:02:14;;;;;;;6.88;1.63;;;;;;;18.66;34.82;96053.13;2063552;28;20396;-67
2022/05/29 16:03:16;;;;;;;4.60;1.25;;;;;;;18.84;35.70;96050.69;2065345;28;20215;-67
2022/05/29 16:04:32;;;;;;;5.70;1.80;;;;;;;18.76;35.87;96044.25;2068644;28;20198;-67
2022/05/29 16:05:38;;;;;;;4.22;1.30;;;;;;;18.87;36.58;96053.06;2065539;28;20735;-67
2022/05/29 16:06:41;;;;;;;3.33;1.70;;;;;;;18.73;34.82;96041.06;2057909;28;20199;-66
2022/05/29 16:07:44;;;;;;;4.45;1.38;;;;;;;18.67;33.39;96052.97;2073189;28;20208;-67
2022/05/29 16:09:08;;;;;;;3.25;1.10;;;;;;;18.61;35.73;96048.22;2071082;28;20206;-67
2022/05/29 16:10:28;;;;;;;6.03;1.77;;;;;;;18.58;33.07;96048.50;2066665;28;20230;-66
2022/05/29 16:11:38;;;;;;;9.77;1.00;;;;;;;18.38;34.34;96044.94;2058518;28;20198;-67
2022/05/29 16:12:48;;;;;;;11.13;1.63;;;;;;;18.48;37.01;96053.75;2075612;28;20248;-67
2022/05/29 16:13:52;;;;;;;4.60;1.33;;;;;;;18.00;33.79;96049.84;2068599;28;20194;-67
2022/05/29 16:14:55;;;;;;;7.72;1.40;;;;;;;17.50;35.01;96046.97;2063252;28;20309;-67
2022/05/29 16:16:07;;;;;;;4.82;2.08;;;;;;;17.81;35.20;96032.03;2065867;28;20854;-67
2022/05/29 16:17:22;;;;;;;4.35;1.10;;;;;;;18.01;34.48;96038.31;2063073;28;20256;-67
2022/05/29 16:18:38;;;;;;;5.47;1.10;;;;;;;18.05;34.14;96044.19;2073628;28;20208;-67
2022/05/29 16:19:49;;;;;;;3.85;1.17;;;;;;;16.52;34.32;96038.00;2065477;28;20281;-63
2022/05/29 16:21:00;;;;;;;2.88;1.52;;;;;;;15.65;36.54;96047.16;2059920;28;20203;-63
2022/05/29 16:22:35;;;;;;;5.40;1.10;;;;;;;15.21;39.31;96044.25;2064328;28;20676;-63
2022/05/29 16:24:03;;;;;;;2.08;0.90;;;;;;;15.38;38.83;96043.00;2065184;28;20215;-63
2022/05/29 16:25:45;;;;;;;3.20;1.50;;;;;;;17.03;38.40;96047.22;2070423;28;20196;-63
2022/05/29 16:26:58;;;;;;;4.55;1.27;;;;;;;17.42;37.57;96037.88;2036534;29;20222;-63
2022/05/29 16:28:02;;;;;;;4.43;1.10;;;;;;;16.66;35.37;96011.41;2045939;29;20199;-65
2022/05/29 16:29:07;;;;;;;7.35;1.63;;;;;;;16.64;37.70;96043.13;2046652;29;20219;-63
2022/05/29 16:30:23;;;;;;;5.57;1.30;;;;;;;16.92;37.00;96046.25;2046770;29;20207;-62
2022/05/29 16:31:32;;;;;;;5.30;1.10;;;;;;;17.08;36.17;96034.50;2036764;29;20825;-62
2022/05/29 16:32:46;;;;;;;5.53;1.50;;;;;;;17.12;36.59;96035.91;2033744;29;20255;-64
2022/05/29 16:33:54;;;;;;;4.03;1.00;;;;;;;17.35;37.19;96027.94;2038950;29;20200;-63
2022/05/29 16:35:07;;;;;;;10.85;2.47;;;;;;;17.19;36.25;96038.88;2046828;29;20206;-63
2022/05/29 16:36:25;;;;;;;4.20;1.17;;;;;;;16.84;35.05;96030.19;2046700;29;20199;-63
2022/05/29 16:48:44;;;;;;;2.00;1.00;;;;;;;15.78;40.42;96034.78;2045137;29;20199;-63
2022/05/29 16:49:46;;;;;;;5.22;1.30;;;;;;;15.65;41.49;96048.00;2046693;29;20215;-62
2022/05/29 16:51:15;;;;;;;7.80;1.27;;;;;;;15.58;41.50;96038.91;2046746;29;20859;-63
2022/05/29 16:52:29;;;;;;;8.27;1.50;;;;;;;15.55;41.61;96041.75;2023672;29;20229;-63
2022/05/29 16:54:02;;;;;;;3.58;1.23;;;;;;;15.58;41.81;96044.16;2039705;29;20205;-63
2022/05/29 16:55:13;;;;;;;4.05;1.17;;;;;;;15.47;40.99;96041.47;2046345;29;20203;-65
2022/05/29 16:56:42;;;;;;;5.30;1.10;;;;;;;15.59;40.83;96045.84;2046237;29;20203;-65
2022/05/29 16:57:53;;;;;;;5.43;1.00;;;;;;;15.71;41.57;96038.00;2046463;29;20293;-64
2022/05/29 16:59:01;;;;;;;66.15;36.97;;;;;;;15.82;41.22;96040.66;2070408;28;20201;-63
2022/05/29 17:00:12;;;;;;;89.85;49.65;;;;;;;15.80;40.99;96039.91;2065528;28;20203;-70
2022/05/29 17:01:18;;;;;;;14.95;8.55;;;;;;;15.87;40.87;96042.94;2067596;28;20225;-65
2022/05/29 17:02:46;;;;;;;15.25;7.93;;;;;;;15.87;40.84;96033.28;2064965;28;20240;-65
2022/05/29 17:03:56;;;;;;;5.43;2.55;;;;;;;15.86;41.89;96034.22;2066229;28;20225;-65
2022/05/29 17:05:06;;;;;;;12.02;1.92;;;;;;;15.75;41.03;96035.00;2065291;28;20202;-65
2022/05/29 17:06:08;;;;;;;3.35;1.10;;;;;;;15.80;41.43;96030.22;2069784;28;20210;-65
2022/05/29 17:07:16;;;;;;;3.22;1.45;;;;;;;15.70;40.18;96044.19;2065827;28;20223;-65
2022/05/29 17:08:33;;;;;;;7.53;1.40;;;;;;;15.67;39.36;96032.13;2073783;28;20205;-65
2022/05/29 17:09:52;;;;;;;3.15;1.10;;;;;;;15.63;39.33;96041.16;2065771;28;20206;-65
2022/05/29 17:10:58;;;;;;;8.88;1.77;;;;;;;15.60;40.66;96044.88;2065581;28;20194;-65
2022/05/29 17:12:07;;;;;;;6.28;1.52;;;;;;;15.52;40.94;96042.81;2059521;28;20222;-65
2022/05/29 17:13:09;;;;;;;9.40;1.35;;;;;;;15.45;40.85;96040.75;2075374;28;20197;-65
2022/05/29 17:14:12;;;;;;;3.85;1.50;;;;;;;15.51;40.46;96032.41;2068741;28;20241;-65
2022/05/29 17:15:20;;;;;;;3.20;1.10;;;;;;;15.36;40.32;96034.38;2068331;28;20287;-65
2022/05/29 17:16:22;;;;;;;2.97;1.20;;;;;;;15.34;39.11;96034.50;2059957;28;20221;-65
2022/05/29 17:17:26;;;;;;;9.25;1.77;;;;;;;15.40;40.36;96038.47;2066493;28;20232;-65
2022/05/29 17:18:28;;;;;;;3.28;1.13;;;;;;;15.30;40.92;96040.06;2067823;28;20719;-65
2022/05/29 17:19:29;;;;;;;5.28;1.30;;;;;;;15.32;40.24;96038.19;2068116;28;20197;-65
2022/05/29 17:20:38;;;;;;;5.13;1.08;;;;;;;15.27;40.70;96041.16;2067966;28;20205;-65
2022/05/29 17:21:46;;;;;;;2.95;1.20;;;;;;;15.25;41.18;96026.44;2068739;28;20201;-65
2022/05/29 17:23:03;;;;;;;4.28;1.42;;;;;;;15.16;41.76;96025.31;2077273;28;20197;-66
2022/05/29 17:24:29;;;;;;;3.88;1.40;;;;;;;15.00;42.38;96026.44;2068593;28;20210;-65
2022/05/29 17:25:40;;;;;;;3.97;1.40;;;;;;;15.11;42.49;96025.66;2068556;28;20210;-65
2022/05/29 17:26:51;;;;;;;5.15;1.85;;;;;;;15.08;42.64;96031.13;2060767;28;20229;-65
2022/05/29 17:27:58;;;;;;;7.28;1.25;;;;;;;15.03;42.74;96025.38;2072657;28;20193;-65
2022/05/29 17:29:11;;;;;;;5.43;1.23;;;;;;;15.02;42.27;96024.53;2066551;28;20202;-65
2022/05/29 17:30:19;;;;;;;1.88;1.00;;;;;;;15.10;42.19;96029.25;2061684;28;20198;-69
2022/05/29 17:31:29;;;;;;;8.77;1.45;;;;;;;14.98;42.49;96028.34;2064470;28;20197;-70
2022/05/29 17:32:40;;;;;;;5.57;1.20;;;;;;;15.06;42.19;96019.91;2067931;28;20206;-70
2022/05/29 17:33:45;;;;;;;11.73;1.80;;;;;;;15.01;42.48;96022.84;2065003;28;20194;-70
2022/05/29 17:34:56;;;;;;;12.23;1.25;;;;;;;14.89;42.85;96023.72;2066627;28;20193;-68
2022/05/29 17:36:23;;;;;;;4.57;1.30;;;;;;;14.84;43.44;96020.59;2064847;28;20228;-68
2022/05/29 17:37:39;;;;;;;4.60;1.00;;;;;;;14.88;41.87;96015.97;2066022;28;20214;-68
2022/05/29 17:38:43;;;;;;;6.10;1.70;;;;;;;14.88;43.10;96026.47;2064843;28;20606;-68
2022/05/29 17:39:53;;;;;;;1.80;0.93;;;;;;;14.82;44.02;96025.16;2066675;28;20202;-69
2022/05/29 17:40:55;;;;;;;5.45;1.40;;;;;;;14.77;44.65;96022.84;2067914;28;20876;-69
2022/05/29 17:41:57;;;;;;;9.80;1.60;;;;;;;14.66;43.86;96017.50;2066264;28;20222;-69
2022/05/29 17:42:59;;;;;;;5.45;1.38;;;;;;;14.61;43.79;96017.78;2068977;28;20201;-69
2022/05/29 17:44:01;;;;;;;4.63;1.15;;;;;;;14.59;43.95;96019.69;2069365;28;20670;-69
2022/05/29 17:45:04;;;;;;;5.63;1.38;;;;;;;14.48;44.45;95996.81;2069959;28;20277;-69
2022/05/29 17:46:12;;;;;;;4.25;1.20;;;;;;;14.60;44.43;96024.00;2068810;28;20209;-69
2022/05/29 17:47:35;;;;;;;7.53;1.23;;;;;;;14.48;44.49;96020.44;2064963;28;20272;-69